Time;durP1;ratioP1;P1;durP2;ratioP2;P2;SDS_P1;SDS_P2;PMS_P1;PMS_P2;Temp;Humidity;BMP_temperature;BMP_pressure;BME280_temperature;BME280_humidity;BME280_pressure;Samples;Min_cycle;Max_cycle;Signal;HPM_P1;HPM_P2
2022/09/20 00:00:47;;;;;;;6.55;0.82;;;11.50;99.90;;;;;;5081128;28;20035;-70
2022/09/20 00:03:14;;;;;;;2.55;0.77;;;11.50;99.90;;;;;;5082376;28;20044;-70
2022/09/20 00:05:42;;;;;;;1.63;0.40;;;11.50;99.90;;;;;;5078255;28;20501;-70
2022/09/20 00:08:12;;;;;;;3.67;1.20;;;11.50;99.90;;;;;;5065823;28;20623;-71
2022/09/20 00:10:38;;;;;;;6.95;0.85;;;11.50;99.90;;;;;;5067225;28;20113;-70
2022/09/20 00:13:09;;;;;;;8.20;0.77;;;11.50;99.90;;;;;;5076468;28;20033;-70
2022/09/20 00:15:41;;;;;;;3.15;0.60;;;11.50;99.90;;;;;;5065387;28;20389;-71
2022/09/20 00:18:06;;;;;;;4.47;0.50;;;11.50;99.90;;;;;;5062148;28;20423;-70
2022/09/20 00:20:32;;;;;;;6.70;0.93;;;11.50;99.90;;;;;;5066146;28;20044;-70
2022/09/20 00:22:57;;;;;;;3.73;0.83;;;11.50;99.90;;;;;;5077258;28;20838;-70
2022/09/20 00:25:23;;;;;;;5.83;0.80;;;11.50;99.90;;;;;;5066093;28;20200;-70
2022/09/20 00:27:49;;;;;;;3.13;0.80;;;11.50;99.90;;;;;;5066435;28;20047;-70
2022/09/20 00:30:17;;;;;;;2.73;0.60;;;11.40;99.90;;;;;;5079107;28;20517;-70
2022/09/20 00:32:43;;;;;;;2.67;0.57;;;11.50;99.90;;;;;;5081175;28;21299;-71
2022/09/20 00:35:11;;;;;;;2.97;0.70;;;11.50;99.90;;;;;;5062429;28;20135;-70
2022/09/20 00:37:41;;;;;;;1.45;0.30;;;11.40;99.90;;;;;;5078535;28;20063;-70
2022/09/20 00:40:11;;;;;;;3.90;0.68;;;11.40;99.90;;;;;;5064287;28;20036;-70
2022/09/20 00:42:37;;;;;;;5.78;0.50;;;11.50;99.90;;;;;;5061770;28;20582;-71
2022/09/20 00:45:06;;;;;;;8.15;0.98;;;11.40;99.90;;;;;;5057723;28;20036;-70
2022/09/20 00:47:46;;;;;;;6.15;0.60;;;11.40;99.90;;;;;;5061554;28;20062;-71
2022/09/20 00:50:34;;;;;;;7.03;0.80;;;11.50;99.90;;;;;;5066010;28;20389;-70
2022/09/20 00:53:08;;;;;;;;;;;11.40;99.90;;;;;;5058367;28;20402;-70
2022/09/20 00:55:37;;;;;;;4.80;1.10;;;11.40;99.90;;;;;;5079491;28;19969;-71
2022/09/20 00:58:04;;;;;;;3.30;0.50;;;11.40;99.90;;;;;;5060110;28;20116;-71
2022/09/20 01:00:30;;;;;;;6.47;0.73;;;11.40;99.90;;;;;;5065591;28;20139;-70
2022/09/20 01:03:00;;;;;;;4.60;0.70;;;11.40;99.90;;;;;;5077789;28;20417;-71
2022/09/20 01:05:26;;;;;;;6.65;0.63;;;11.40;99.90;;;;;;5059400;28;20047;-70
2022/09/20 01:07:52;;;;;;;7.03;1.33;;;11.40;99.90;;;;;;5064406;28;20040;-70
2022/09/20 01:10:18;;;;;;;2.47;0.47;;;11.40;99.90;;;;;;5064223;28;20051;-70
2022/09/20 01:12:45;;;;;;;4.50;0.80;;;11.50;99.90;;;;;;5057914;28;20425;-70
2022/09/20 01:15:11;;;;;;;2.78;0.47;;;11.40;99.90;;;;;;5071262;28;20390;-70
2022/09/20 01:17:41;;;;;;;3.83;0.55;;;11.50;99.90;;;;;;5076412;28;20544;-70
2022/09/20 01:20:13;;;;;;;3.17;0.75;;;11.50;99.90;;;;;;5081633;28;20032;-70
2022/09/20 01:22:45;;;;;;;1.58;0.50;;;11.50;99.90;;;;;;5064423;28;20099;-70
2022/09/20 01:25:35;;;;;;;5.15;1.13;;;11.50;99.90;;;;;;5065311;28;20294;-70
2022/09/20 01:28:00;;;;;;;3.42;0.50;;;11.50;99.90;;;;;;5079731;28;20071;-71
2022/09/20 01:30:46;;;;;;;3.53;0.50;;;11.50;99.90;;;;;;5079758;28;21856;-70
2022/09/20 01:33:27;;;;;;;4.15;0.82;;;11.40;99.90;;;;;;5077603;28;20040;-70
2022/09/20 01:35:56;;;;;;;2.90;0.70;;;11.50;99.90;;;;;;5061273;28;20541;-70
2022/09/20 01:38:53;;;;;;;8.50;0.70;;;11.50;99.90;;;;;;5057263;28;20132;-70
2022/09/20 01:41:35;;;;;;;4.45;0.70;;;11.50;99.90;;;;;;5065558;28;20040;-70
2022/09/20 01:44:21;;;;;;;2.10;0.85;;;11.50;99.90;;;;;;5074160;28;20044;-71
2022/09/20 01:46:51;;;;;;;3.65;0.50;;;11.50;99.90;;;;;;5077436;28;20043;-70
2022/09/20 01:49:56;;;;;;;2.47;0.68;;;11.50;99.90;;;;;;5061164;28;20406;-70
2022/09/20 01:52:33;;;;;;;12.40;0.88;;;11.50;99.90;;;;;;4941504;28;20493;-70
2022/09/20 01:57:52;;;;;;;4.57;0.80;;;11.60;99.90;;;;;;5036702;28;20104;-71
2022/09/20 02:00:43;;;;;;;5.13;0.65;;;11.60;99.90;;;;;;5040221;28;20124;-70
2022/09/20 02:03:22;;;;;;;2.97;0.95;;;11.60;99.90;;;;;;5017995;28;20071;-72
2022/09/20 02:06:28;;;;;;;9.15;0.73;;;11.60;99.90;;;;;;5030494;28;20095;-70
2022/09/20 02:08:56;;;;;;;1.88;0.52;;;11.60;99.90;;;;;;5006251;28;20499;-70
2022/09/20 02:11:49;;;;;;;2.55;0.40;;;11.70;99.90;;;;;;5018573;28;20383;-71
2022/09/20 02:14:29;;;;;;;1.15;0.45;;;11.70;99.90;;;;;;5019803;28;20276;-71
2022/09/20 02:17:02;;;;;;;3.97;0.50;;;11.70;99.90;;;;;;5015987;28;20057;-70
2022/09/20 02:19:59;;;;;;;1.55;0.45;;;11.70;99.90;;;;;;5021713;28;20045;-71
2022/09/20 02:22:40;;;;;;;2.60;0.70;;;11.80;99.90;;;;;;5027328;28;20140;-71
2022/09/20 02:25:33;;;;;;;2.30;0.65;;;11.80;99.90;;;;;;5019784;28;20037;-71
2022/09/20 02:28:20;;;;;;;2.45;0.68;;;11.80;99.90;;;;;;5017099;28;20041;-71
2022/09/20 02:31:05;;;;;;;1.17;0.55;;;11.80;99.90;;;;;;5021339;28;20034;-71
2022/09/20 02:33:59;;;;;;;3.95;0.47;;;11.80;99.90;;;;;;5024530;28;20386;-71
2022/09/20 02:37:02;;;;;;;3.20;0.40;;;11.80;99.90;;;;;;5015818;28;20054;-72
2022/09/20 02:39:35;;;;;;;1.95;0.45;;;11.90;99.90;;;;;;5025716;28;20043;-71
2022/09/20 02:42:07;;;;;;;0.73;0.30;;;11.90;99.90;;;;;;5017942;28;20123;-71
2022/09/20 02:45:01;;;;;;;2.67;0.50;;;11.90;99.90;;;;;;5020302;28;20045;-73
2022/09/20 02:47:32;;;;;;;1.58;0.30;;;11.90;99.90;;;;;;5012849;28;20155;-71
2022/09/20 02:50:38;;;;;;;1.70;0.40;;;11.90;99.90;;;;;;5026472;28;20084;-72
2022/09/20 02:53:20;;;;;;;2.92;0.80;;;11.90;99.90;;;;;;5017375;28;20383;-72
2022/09/20 02:55:57;;;;;;;2.38;0.40;;;11.90;99.90;;;;;;5024152;28;20056;-71
2022/09/20 02:58:51;;;;;;;1.42;0.82;;;11.90;99.90;;;;;;5020154;28;20048;-72
2022/09/20 03:01:43;;;;;;;2.00;0.70;;;11.80;99.90;;;;;;5011053;28;20049;-71
2022/09/20 03:04:28;;;;;;;2.97;0.80;;;11.90;99.90;;;;;;5017500;28;20037;-71
2022/09/20 03:07:14;;;;;;;2.20;0.75;;;11.90;99.90;;;;;;5027587;28;20049;-71
2022/09/20 03:10:07;;;;;;;5.37;1.20;;;11.90;99.90;;;;;;5023814;28;20049;-71
2022/09/20 03:12:48;;;;;;;3.50;0.90;;;11.80;99.90;;;;;;5009330;28;20065;-71
2022/09/20 03:15:45;;;;;;;2.20;0.30;;;11.80;99.90;;;;;;5016078;28;20120;-71
2022/09/20 03:18:32;;;;;;;1.38;0.45;;;11.80;99.90;;;;;;5014288;28;20049;-71
2022/09/20 03:21:08;;;;;;;1.13;0.20;;;11.80;99.90;;;;;;5023630;28;20044;-70
2022/09/20 03:24:38;;;;;;;4.85;0.55;;;11.80;99.90;;;;;;5021552;28;20137;-71
2022/09/20 03:27:10;;;;;;;3.00;0.50;;;11.80;99.90;;;;;;4983689;28;20046;-71
2022/09/20 03:29:49;;;;;;;5.35;0.65;;;11.80;99.90;;;;;;4997606;28;20290;-71
2022/09/20 03:32:25;;;;;;;3.63;0.98;;;11.80;99.90;;;;;;5017805;28;20099;-71
2022/09/20 03:35:19;;;;;;;3.72;1.15;;;11.80;99.90;;;;;;5020339;28;20060;-71
2022/09/20 03:38:07;;;;;;;2.75;1.20;;;11.80;99.90;;;;;;5018232;28;20049;-71
2022/09/20 03:40:41;;;;;;;2.75;0.77;;;11.80;99.90;;;;;;5018373;28;20045;-71
2022/09/20 03:43:22;;;;;;;3.08;0.93;;;11.90;99.90;;;;;;5016113;28;20088;-71
2022/09/20 03:46:02;;;;;;;3.83;0.93;;;11.90;99.90;;;;;;5022172;28;20063;-72
2022/09/20 03:48:56;;;;;;;6.68;0.93;;;11.90;99.90;;;;;;5017187;28;20101;-73
2022/09/20 03:51:37;;;;;;;3.97;0.82;;;11.90;99.90;;;;;;5020755;28;20550;-71
2022/09/20 03:54:21;;;;;;;1.80;0.70;;;11.90;99.90;;;;;;5015721;28;20037;-72
2022/09/20 03:57:18;;;;;;;3.75;0.70;;;11.90;99.90;;;;;;5015249;28;20049;-72
2022/09/20 03:59:53;;;;;;;4.00;0.90;;;11.90;99.90;;;;;;5017123;28;20102;-71
2022/09/20 04:02:31;;;;;;;4.88;0.80;;;11.90;99.90;;;;;;5022462;28;20079;-72
2022/09/20 04:05:00;;;;;;;5.10;1.05;;;11.90;99.90;;;;;;5014436;28;20507;-72
2022/09/20 04:07:45;;;;;;;3.72;1.25;;;11.90;99.90;;;;;;5020368;28;20049;-72
2022/09/20 04:10:25;;;;;;;2.55;1.15;;;11.90;99.90;;;;;;5021884;28;20174;-71
2022/09/20 04:13:09;;;;;;;3.28;1.23;;;11.90;99.90;;;;;;5019239;28;20073;-71
2022/09/20 04:15:40;;;;;;;3.42;0.60;;;11.90;99.90;;;;;;5020566;28;20041;-71
2022/09/20 04:18:40;;;;;;;2.30;0.70;;;11.90;99.90;;;;;;5014240;28;20065;-72
2022/09/20 04:21:25;;;;;;;2.47;0.40;;;11.90;99.90;;;;;;5025025;28;20068;-70
2022/09/20 04:24:20;;;;;;;2.00;0.57;;;11.90;99.90;;;;;;5021514;28;20150;-71
2022/09/20 04:27:12;;;;;;;3.95;0.70;;;11.90;99.90;;;;;;5013942;28;20415;-71
2022/09/20 04:29:51;;;;;;;1.83;0.70;;;11.90;99.90;;;;;;5016202;28;20056;-71
2022/09/20 04:32:45;;;;;;;2.50;0.68;;;11.90;99.90;;;;;;5019307;28;20045;-72
2022/09/20 04:38:16;;;;;;;3.65;1.00;;;11.90;99.90;;;;;;5020361;28;20104;-70
2022/09/20 04:41:27;;;;;;;3.63;0.60;;;11.90;99.90;;;;;;5022051;28;20483;-72
2022/09/20 04:44:16;;;;;;;2.08;0.77;;;11.90;99.90;;;;;;4975566;28;20038;-71
2022/09/20 04:47:16;;;;;;;1.42;0.50;;;11.90;99.90;;;;;;5019154;28;20061;-71
2022/09/20 04:50:00;;;;;;;2.17;0.90;;;11.90;99.90;;;;;;5017752;28;20585;-71
2022/09/20 04:53:03;;;;;;;4.15;0.93;;;11.90;99.90;;;;;;5013635;28;20328;-70
2022/09/20 04:55:47;;;;;;;7.90;1.13;;;11.90;99.90;;;;;;5018737;28;20041;-71
2022/09/20 04:58:24;;;;;;;3.83;1.02;;;11.90;99.90;;;;;;5019767;28;20043;-71
2022/09/20 05:01:15;;;;;;;4.28;0.93;;;11.90;99.90;;;;;;5015851;28;20037;-71
2022/09/20 05:04:39;;;;;;;2.30;0.75;;;11.80;99.90;;;;;;5035210;28;20041;-72
2022/09/20 05:07:29;;;;;;;3.38;0.90;;;11.90;99.90;;;;;;4955897;28;20114;-72
2022/09/20 05:10:23;;;;;;;6.03;0.82;;;11.80;99.90;;;;;;4972104;28;20043;-70
2022/09/20 05:13:12;;;;;;;5.68;0.98;;;11.80;99.90;;;;;;5013669;28;20450;-70
2022/09/20 05:15:42;;;;;;;2.70;1.02;;;11.80;99.90;;;;;;5015549;28;20057;-70
2022/09/20 05:18:55;;;;;;;2.60;0.90;;;11.80;99.90;;;;;;5017538;28;20042;-71
2022/09/20 05:21:46;;;;;;;3.17;1.00;;;11.80;99.90;;;;;;5006690;28;20526;-71
2022/09/20 05:24:24;;;;;;;3.85;0.90;;;11.90;99.90;;;;;;5050996;28;20049;-71
2022/09/20 05:26:56;;;;;;;4.32;1.38;;;11.80;99.90;;;;;;5018390;28;20033;-72
2022/09/20 05:29:41;;;;;;;5.68;1.52;;;11.80;99.90;;;;;;5022714;28;20120;-70
2022/09/20 05:32:32;;;;;;;7.90;1.70;;;11.80;99.90;;;;;;5027236;28;20041;-72
2022/09/20 05:35:13;;;;;;;8.82;1.90;;;11.80;99.90;;;;;;5016252;28;20623;-71
2022/09/20 05:37:47;;;;;;;3.95;0.90;;;11.80;99.90;;;;;;5023450;28;20129;-71
2022/09/20 05:40:24;;;;;;;3.17;1.05;;;11.70;99.90;;;;;;5023872;28;20029;-70
2022/09/20 05:43:07;;;;;;;3.03;0.80;;;11.70;99.90;;;;;;5028912;28;20142;-73
2022/09/20 05:45:59;;;;;;;4.57;0.80;;;11.70;99.90;;;;;;5019944;28;20459;-72
2022/09/20 05:48:50;;;;;;;5.60;0.95;;;11.70;99.90;;;;;;5014960;28;20038;-73
2022/09/20 05:51:50;;;;;;;2.50;0.88;;;11.70;99.90;;;;;;5019758;28;20467;-73
2022/09/20 05:54:44;;;;;;;3.38;0.95;;;11.60;99.90;;;;;;5017304;28;20425;-73
2022/09/20 05:57:22;;;;;;;2.88;0.75;;;11.60;99.90;;;;;;5020125;28;20349;-72
2022/09/20 06:00:09;;;;;;;2.45;0.98;;;11.60;99.90;;;;;;5021339;28;21455;-72
2022/09/20 06:03:05;;;;;;;2.72;0.50;;;11.60;99.90;;;;;;5012229;28;21153;-73
2022/09/20 06:05:43;;;;;;;5.10;1.27;;;11.60;99.90;;;;;;5016578;28;20125;-72
2022/09/20 06:08:20;;;;;;;10.10;1.30;;;11.60;99.90;;;;;;5047332;28;20103;-72
2022/09/20 06:11:04;;;;;;;7.38;1.27;;;11.60;99.90;;;;;;5015612;28;20053;-78
2022/09/20 06:13:36;;;;;;;2.85;1.00;;;11.60;99.90;;;;;;5014189;28;20060;-76
2022/09/20 06:16:08;;;;;;;4.25;1.20;;;11.50;99.90;;;;;;5037475;28;20672;-75
2022/09/20 06:18:58;;;;;;;4.22;1.60;;;11.50;99.90;;;;;;5020324;28;20120;-74
2022/09/20 06:21:49;;;;;;;4.40;1.38;;;11.60;99.90;;;;;;5033400;28;20041;-76
2022/09/20 06:24:30;;;;;;;6.32;2.28;;;11.60;99.90;;;;;;5025576;28;20297;-74
2022/09/20 06:27:01;;;;;;;5.50;1.38;;;11.60;99.90;;;;;;5037755;28;20503;-73
2022/09/20 06:29:32;;;;;;;4.05;1.02;;;11.70;99.90;;;;;;5019365;28;20041;-75
2022/09/20 06:31:57;;;;;;;12.00;1.25;;;11.70;99.90;;;;;;5016614;28;20115;-74
2022/09/20 06:34:25;;;;;;;3.67;0.77;;;11.80;99.90;;;;;;5020158;28;20057;-74
2022/09/20 06:43:13;;;;;;;4.97;0.95;;;12.00;99.90;;;;;;5018258;28;20042;-74
2022/09/20 06:45:40;;;;;;;8.60;1.50;;;12.00;99.90;;;;;;5025200;28;20439;-75
2022/09/20 06:48:07;;;;;;;3.55;1.05;;;12.10;99.90;;;;;;5036527;28;20171;-74
2022/09/20 06:50:35;;;;;;;6.90;1.08;;;12.20;99.90;;;;;;5018541;28;20419;-77
2022/09/20 06:53:01;;;;;;;5.95;1.20;;;12.30;99.90;;;;;;5024524;28;20509;-76
2022/09/20 06:55:32;;;;;;;6.13;1.02;;;12.30;99.90;;;;;;5017759;28;20053;-75
2022/09/20 06:57:57;;;;;;;4.35;0.60;;;12.40;99.90;;;;;;5020335;28;20038;-77
2022/09/20 07:00:23;;;;;;;2.37;0.83;;;12.50;99.90;;;;;;5020614;28;20052;-76
2022/09/20 07:02:49;;;;;;;2.42;0.60;;;12.60;99.90;;;;;;5017448;28;20362;-76
2022/09/20 07:05:16;;;;;;;2.83;0.80;;;12.60;99.90;;;;;;5022506;28;20494;-78
2022/09/20 07:07:43;;;;;;;2.90;0.88;;;12.70;99.90;;;;;;5015997;28;20042;-77
2022/09/20 07:10:10;;;;;;;3.05;0.90;;;12.80;99.90;;;;;;5041036;28;20049;-76
2022/09/20 07:12:36;;;;;;;7.43;0.60;;;12.80;99.90;;;;;;5012577;28;20049;-73
2022/09/20 07:15:02;;;;;;;5.35;1.20;;;12.90;99.90;;;;;;5016815;28;20525;-73
2022/09/20 07:17:27;;;;;;;7.53;1.10;;;12.90;99.90;;;;;;5021871;28;20268;-73
2022/09/20 07:19:55;;;;;;;1.40;0.40;;;13.00;99.90;;;;;;5006286;28;20723;-73
2022/09/20 07:22:20;;;;;;;4.32;0.90;;;13.00;99.90;;;;;;5020654;28;20064;-73
2022/09/20 07:24:47;;;;;;;5.67;0.73;;;13.10;99.90;;;;;;5018479;28;20033;-73
2022/09/20 07:27:13;;;;;;;5.10;1.15;;;13.10;99.90;;;;;;5021173;28;20064;-73
2022/09/20 07:29:39;;;;;;;5.47;1.02;;;13.10;99.90;;;;;;5018399;28;20060;-73
2022/09/20 07:32:05;;;;;;;4.05;0.40;;;13.20;99.90;;;;;;5013485;28;20055;-73
2022/09/20 07:34:31;;;;;;;7.70;0.60;;;13.20;99.90;;;;;;5015851;28;20102;-73
2022/09/20 07:36:58;;;;;;;4.03;0.60;;;13.20;99.90;;;;;;5018250;28;20049;-73
2022/09/20 07:39:25;;;;;;;6.38;0.52;;;13.30;99.90;;;;;;5026855;28;20114;-73
2022/09/20 07:41:51;;;;;;;1.88;0.70;;;13.30;99.90;;;;;;5017240;28;20045;-73
2022/09/20 07:44:20;;;;;;;;;;;13.30;99.90;;;;;;5021322;28;20109;-73
2022/09/20 07:46:58;;;;;;;3.53;0.88;;;13.30;99.90;;;;;;5014988;28;19920;-73
2022/09/20 07:49:25;;;;;;;2.38;0.43;;;13.30;99.90;;;;;;5024033;28;20049;-73
2022/09/20 07:51:52;;;;;;;11.25;1.17;;;13.40;99.90;;;;;;5015585;28;20052;-73
2022/09/20 07:54:18;;;;;;;4.80;0.68;;;13.40;99.90;;;;;;5050588;28;20390;-73
2022/09/20 07:56:44;;;;;;;4.25;0.60;;;13.40;99.90;;;;;;5034976;22;20045;-69
2022/09/20 07:59:10;;;;;;;;;;;13.40;99.90;;;;;;5029092;28;20048;-71
2022/09/20 08:01:37;;;;;;;3.03;0.80;;;13.40;99.90;;;;;;5041896;28;20259;-69
2022/09/20 08:04:05;;;;;;;5.68;0.73;;;13.40;99.90;;;;;;5043990;28;20410;-68
2022/09/20 08:06:31;;;;;;;2.83;0.85;;;13.50;99.90;;;;;;5043633;28;20045;-69
2022/09/20 08:08:56;;;;;;;5.18;0.93;;;13.50;99.90;;;;;;5029344;28;20041;-69
2022/09/20 08:11:24;;;;;;;2.40;0.67;;;13.60;99.90;;;;;;5037459;28;20041;-73
2022/09/20 08:13:52;;;;;;;1.48;0.73;;;13.60;99.90;;;;;;5038318;28;20048;-69
2022/09/20 08:16:18;;;;;;;5.78;0.55;;;13.70;99.90;;;;;;5042987;28;20038;-68
2022/09/20 08:18:59;;;;;;;5.45;0.80;;;13.70;99.90;;;;;;5040554;28;20365;-68
2022/09/20 08:21:27;;;;;;;3.65;0.60;;;13.80;99.90;;;;;;5039621;28;20173;-68
2022/09/20 08:23:53;;;;;;;3.97;0.30;;;13.90;99.90;;;;;;5043117;28;20052;-68
2022/09/20 08:26:22;;;;;;;2.28;0.40;;;13.90;99.90;;;;;;5041606;28;20061;-68
2022/09/20 08:28:51;;;;;;;1.40;0.43;;;14.00;99.90;;;;;;5016421;28;20542;-68
2022/09/20 08:31:19;;;;;;;3.55;0.32;;;14.10;99.90;;;;;;5029870;28;20052;-69
2022/09/20 08:33:46;;;;;;;2.80;0.80;;;14.10;99.90;;;;;;5029808;28;20239;-69
2022/09/20 08:36:17;;;;;;;1.90;0.30;;;14.20;99.90;;;;;;5047911;28;20102;-70
2022/09/20 08:38:43;;;;;;;1.58;0.40;;;14.30;99.90;;;;;;5042617;28;20044;-68
2022/09/20 08:41:20;;;;;;;3.90;0.45;;;14.30;99.90;;;;;;5039783;28;20413;-68
2022/09/20 08:43:54;;;;;;;3.13;0.35;;;14.40;99.90;;;;;;5027076;28;20068;-68
2022/09/20 08:46:26;;;;;;;4.28;0.50;;;14.40;99.90;;;;;;5028021;28;20048;-68
2022/09/20 08:48:51;;;;;;;5.55;0.40;;;14.40;99.90;;;;;;5028135;28;20041;-69
2022/09/20 08:51:18;;;;;;;1.38;0.40;;;14.40;99.90;;;;;;5029295;28;20052;-68
2022/09/20 08:53:48;;;;;;;3.10;0.50;;;14.30;99.90;;;;;;5045425;28;20052;-69
2022/09/20 08:56:14;;;;;;;1.63;0.40;;;14.30;99.90;;;;;;5026570;28;20116;-68
2022/09/20 08:58:40;;;;;;;0.68;0.30;;;14.30;99.90;;;;;;5040956;28;20160;-68
2022/09/20 09:01:06;;;;;;;2.88;0.30;;;14.30;99.90;;;;;;5036167;28;20064;-68
2022/09/20 09:03:32;;;;;;;1.90;0.40;;;14.30;99.90;;;;;;5042136;28;20560;-69
2022/09/20 09:06:00;;;;;;;5.10;0.50;;;14.30;99.90;;;;;;5025220;28;20076;-68
2022/09/20 09:08:45;;;;;;;0.85;0.30;;;14.30;99.90;;;;;;5040468;28;20067;-68
2022/09/20 09:11:16;;;;;;;1.45;0.40;;;14.30;99.90;;;;;;5026311;28;20375;-68
2022/09/20 09:13:52;;;;;;;1.88;0.35;;;14.30;99.90;;;;;;5043343;28;20155;-69
2022/09/20 09:16:21;;;;;;;2.47;0.40;;;14.40;99.90;;;;;;5020413;28;20299;-68
2022/09/20 09:18:50;;;;;;;1.20;0.20;;;14.50;99.90;;;;;;5040310;28;20072;-69
2022/09/20 09:21:25;;;;;;;2.08;0.35;;;14.60;99.90;;;;;;5042729;28;20052;-69
2022/09/20 09:24:08;;;;;;;1.00;0.30;;;14.70;99.90;;;;;;5043518;28;20041;-68
2022/09/20 09:26:39;;;;;;;4.35;0.60;;;14.70;99.90;;;;;;5018327;28;20375;-68
2022/09/20 09:29:17;;;;;;;1.10;0.32;;;14.80;99.90;;;;;;5039854;28;20080;-68
2022/09/20 09:31:45;;;;;;;3.55;0.40;;;14.70;99.90;;;;;;5041833;28;20045;-68
2022/09/20 09:34:28;;;;;;;3.58;0.47;;;14.70;99.90;;;;;;5023575;28;20041;-68
2022/09/20 09:36:54;;;;;;;4.35;0.52;;;14.70;99.90;;;;;;5041112;28;20171;-69
2022/09/20 09:39:28;;;;;;;3.60;0.50;;;14.80;99.90;;;;;;5045546;28;20045;-69
2022/09/20 09:41:54;;;;;;;1.77;0.50;;;14.90;99.90;;;;;;5043873;28;20037;-69
2022/09/20 09:44:34;;;;;;;1.15;0.30;;;14.90;99.90;;;;;;5029538;28;20116;-69
2022/09/20 09:47:01;;;;;;;2.03;0.47;;;15.00;99.90;;;;;;5031209;28;20434;-69
2022/09/20 09:49:34;;;;;;;4.90;1.02;;;15.10;99.90;;;;;;5042840;28;20242;-68
2022/09/20 09:52:03;;;;;;;3.17;0.20;;;15.20;99.90;;;;;;5020422;28;20049;-68
2022/09/20 09:54:34;;;;;;;3.38;0.50;;;15.40;99.90;;;;;;5045352;28;20083;-68
2022/09/20 09:57:19;;;;;;;1.65;0.38;;;15.50;99.90;;;;;;5026309;28;20079;-69
2022/09/20 10:00:09;;;;;;;1.33;0.40;;;15.50;99.90;;;;;;5042205;28;20044;-69
2022/09/20 10:03:12;;;;;;;3.92;0.38;;;15.70;99.90;;;;;;5014674;28;20053;-68
2022/09/20 10:05:40;;;;;;;0.90;0.43;;;15.90;99.90;;;;;;5044021;28;20272;-69
2022/09/20 10:08:49;;;;;;;9.63;0.73;;;16.20;99.90;;;;;;5036747;28;20059;-69
2022/09/20 10:12:00;;;;;;;3.25;0.50;;;16.30;99.90;;;;;;5039352;28;20048;-68
2022/09/20 10:14:53;;;;;;;1.77;0.85;;;16.20;99.90;;;;;;5006117;28;20064;-68
2022/09/20 10:18:01;;;;;;;1.02;0.40;;;16.10;99.90;;;;;;5048856;28;20040;-69
2022/09/20 10:20:56;;;;;;;1.52;0.57;;;16.00;99.90;;;;;;5048110;28;20052;-69
2022/09/20 10:23:36;;;;;;;2.22;0.50;;;16.00;99.90;;;;;;5046435;28;20045;-68
2022/09/20 10:26:23;;;;;;;3.58;0.35;;;15.90;99.90;;;;;;5042234;28;20051;-69
2022/09/20 10:28:58;;;;;;;0.93;0.35;;;15.90;99.90;;;;;;5048421;28;20047;-69
2022/09/20 10:31:34;;;;;;;3.38;0.50;;;15.90;99.90;;;;;;5042393;28;20038;-69
2022/09/20 10:34:25;;;;;;;3.65;0.75;;;16.00;99.90;;;;;;5031351;28;20087;-69
2022/09/20 10:37:00;;;;;;;1.65;0.40;;;16.00;99.90;;;;;;5030656;28;20056;-69
2022/09/20 10:39:33;;;;;;;6.68;1.17;;;16.00;99.90;;;;;;5030002;28;20061;-69
2022/09/20 10:45:13;;;;;;;3.13;0.73;;;16.00;99.90;;;;;;5037244;28;20037;-69
2022/09/20 10:47:53;;;;;;;4.28;0.70;;;16.00;99.90;;;;;;5045255;28;20045;-69
2022/09/20 10:50:42;;;;;;;8.93;1.15;;;15.90;99.90;;;;;;5028914;28;20067;-69
2022/09/20 10:53:26;;;;;;;4.15;0.52;;;15.90;99.90;;;;;;5019878;28;20068;-69
2022/09/20 10:56:26;;;;;;;1.70;0.30;;;15.80;99.90;;;;;;5029142;28;20044;-69
2022/09/20 10:59:29;;;;;;;2.63;0.40;;;15.70;99.90;;;;;;5049112;28;20124;-69
2022/09/20 11:02:07;;;;;;;4.20;0.77;;;15.70;99.90;;;;;;5026116;28;20113;-69
2022/09/20 11:04:32;;;;;;;1.92;0.80;;;15.90;99.90;;;;;;5045231;28;20037;-69
2022/09/20 11:07:21;;;;;;;2.25;0.50;;;16.10;99.90;;;;;;5030023;28;20420;-69
2022/09/20 11:10:03;;;;;;;5.55;0.57;;;16.30;99.90;;;;;;5027112;28;20483;-69
2022/09/20 11:12:42;;;;;;;1.48;0.40;;;16.50;99.90;;;;;;5043297;28;20048;-69
2022/09/20 11:15:15;;;;;;;3.72;0.65;;;16.60;99.90;;;;;;5021149;28;20085;-69
2022/09/20 11:18:02;;;;;;;1.95;0.50;;;16.50;99.90;;;;;;5044506;28;20041;-68
2022/09/20 11:20:34;;;;;;;2.53;0.45;;;16.60;99.90;;;;;;5045357;28;20072;-69
2022/09/20 11:23:09;;;;;;;4.05;0.43;;;16.60;99.90;;;;;;5029567;28;20072;-69
2022/09/20 11:26:06;;;;;;;4.32;0.40;;;16.60;99.90;;;;;;5027091;28;20037;-69
2022/09/20 11:28:32;;;;;;;2.17;0.45;;;16.40;99.90;;;;;;5024852;28;20064;-69
2022/09/20 11:31:06;;;;;;;2.78;0.50;;;16.30;99.90;;;;;;5043573;28;20471;-69
2022/09/20 11:33:38;;;;;;;2.97;0.45;;;16.30;99.90;;;;;;5046581;28;20128;-69
2022/09/20 11:36:13;;;;;;;4.03;0.85;;;16.30;99.90;;;;;;5047379;28;20490;-69
2022/09/20 11:38:50;;;;;;;1.88;0.35;;;16.40;99.90;;;;;;5045771;28;20103;-69
2022/09/20 11:41:27;;;;;;;3.17;0.20;;;16.70;99.90;;;;;;5046971;28;20744;-69
2022/09/20 11:43:58;;;;;;;3.40;0.20;;;16.90;99.90;;;;;;5047255;28;20112;-69
2022/09/20 11:46:33;;;;;;;2.90;0.60;;;17.10;99.90;;;;;;5046147;28;20458;-69
2022/09/20 11:49:06;;;;;;;0.98;0.30;;;17.10;99.90;;;;;;5036593;28;20033;-69
2022/09/20 11:51:47;;;;;;;2.65;0.65;;;17.10;99.90;;;;;;5044090;28;20037;-69
2022/09/20 11:54:33;;;;;;;3.45;0.60;;;17.20;99.90;;;;;;5041793;28;20108;-69
2022/09/20 11:56:59;;;;;;;3.00;0.40;;;17.40;99.90;;;;;;5043903;28;20490;-69
2022/09/20 11:59:33;;;;;;;2.03;0.40;;;17.60;99.90;;;;;;5023047;28;20285;-69
2022/09/20 12:02:01;;;;;;;1.27;0.35;;;17.70;99.90;;;;;;5044781;28;20041;-69
2022/09/20 12:04:33;;;;;;;1.98;0.75;;;17.60;99.90;;;;;;5044169;28;20525;-69
2022/09/20 12:07:38;;;;;;;1.83;0.50;;;17.40;99.90;;;;;;5036250;28;20037;-69
2022/09/20 12:10:07;;;;;;;2.22;0.32;;;17.10;99.90;;;;;;4950577;28;20129;-69
2022/09/20 12:12:42;;;;;;;1.50;0.30;;;17.10;99.90;;;;;;4949043;28;20080;-69
2022/09/20 12:15:20;;;;;;;1.60;0.20;;;17.10;99.90;;;;;;5000673;28;20067;-69
2022/09/20 12:17:45;;;;;;;4.13;0.40;;;17.30;99.90;;;;;;5042509;28;20128;-69
2022/09/20 12:20:33;;;;;;;1.17;0.32;;;17.60;99.90;;;;;;5026748;28;20115;-69
2022/09/20 12:23:37;;;;;;;1.80;0.38;;;17.70;99.90;;;;;;5044208;28;20072;-69
2022/09/20 12:26:21;;;;;;;6.43;1.25;;;17.80;99.90;;;;;;5013981;28;20041;-69
2022/09/20 12:28:49;;;;;;;4.60;0.50;;;17.60;99.90;;;;;;5020982;28;20218;-69
2022/09/20 12:31:20;;;;;;;5.65;0.50;;;17.50;99.90;;;;;;5044563;28;20053;-69
2022/09/20 12:34:14;;;;;;;2.10;0.25;;;17.30;99.90;;;;;;5040925;28;20040;-69
2022/09/20 12:36:55;;;;;;;1.77;0.20;;;17.20;99.90;;;;;;5040365;28;20235;-69
2022/09/20 12:39:29;;;;;;;3.20;0.30;;;17.00;99.90;;;;;;5026043;28;20052;-69
2022/09/20 12:42:02;;;;;;;2.15;0.40;;;17.10;99.90;;;;;;5040761;28;20448;-69
2022/09/20 12:44:57;;;;;;;2.80;0.40;;;17.30;99.90;;;;;;5043925;28;20449;-69
2022/09/20 12:47:29;;;;;;;2.78;0.32;;;17.30;99.90;;;;;;5041310;28;20060;-69
2022/09/20 12:52:59;;;;;;;2.45;0.30;;;17.50;99.90;;;;;;5043853;28;20052;-69
2022/09/20 12:55:38;;;;;;;3.42;0.30;;;17.70;99.90;;;;;;5026375;28;20399;-69
2022/09/20 12:58:13;;;;;;;0.90;0.20;;;18.00;99.90;;;;;;5044514;28;20095;-69
2022/09/20 13:01:09;;;;;;;4.13;0.70;;;18.20;99.90;;;;;;5023621;28;20124;-69
2022/09/20 13:03:36;;;;;;;0.85;0.20;;;18.40;99.90;;;;;;5025512;28;20048;-69
2022/09/20 13:06:05;;;;;;;1.20;0.63;;;18.50;99.90;;;;;;5019608;28;20045;-69
2022/09/20 13:08:39;;;;;;;5.07;0.35;;;18.50;99.90;;;;;;5022765;28;20048;-69
2022/09/20 13:11:05;;;;;;;2.40;0.50;;;18.50;99.90;;;;;;5027115;28;20076;-69
2022/09/20 13:13:57;;;;;;;3.25;0.77;;;18.30;99.90;;;;;;5024921;28;20121;-69
2022/09/20 13:16:35;;;;;;;1.73;0.32;;;18.10;99.90;;;;;;5039087;28;20033;-69
2022/09/20 13:19:11;;;;;;;2.38;0.70;;;17.80;99.90;;;;;;5021406;28;20041;-69
2022/09/20 13:21:39;;;;;;;1.67;0.20;;;17.60;99.90;;;;;;5041101;28;20103;-69
2022/09/20 13:24:07;;;;;;;2.85;0.50;;;17.50;99.90;;;;;;5013046;28;20041;-69
2022/09/20 13:26:39;;;;;;;1.52;0.25;;;17.30;99.90;;;;;;5040140;28;20173;-69
2022/09/20 13:29:08;;;;;;;1.40;0.20;;;17.30;99.90;;;;;;5042733;28;20045;-68
2022/09/20 13:31:35;;;;;;;3.20;0.50;;;17.50;99.90;;;;;;5035528;28;20140;-69
2022/09/20 13:34:33;;;;;;;1.40;0.20;;;17.70;99.90;;;;;;5041445;28;20127;-68
2022/09/20 13:36:59;;;;;;;;;;;17.90;99.90;;;;;;5012201;28;20136;-68
2022/09/20 13:39:34;;;;;;;1.70;0.20;;;18.00;96.70;;;;;;5029162;28;19924;-69
2022/09/20 13:42:07;;;;;;;2.75;0.60;;;18.20;99.70;;;;;;5043773;28;20041;-69
2022/09/20 13:44:34;;;;;;;1.02;0.25;;;18.30;99.90;;;;;;5044199;28;20091;-69
2022/09/20 13:47:00;;;;;;;1.35;0.57;;;18.40;98.50;;;;;;5045320;28;20507;-68
2022/09/20 13:49:30;;;;;;;1.95;0.38;;;18.50;99.10;;;;;;5051927;28;20508;-69
2022/09/20 13:51:56;;;;;;;2.30;0.47;;;18.70;99.30;;;;;;5028974;28;20076;-69
2022/09/20 13:54:30;;;;;;;1.45;0.35;;;18.80;99.30;;;;;;5045981;28;20068;-69
2022/09/20 13:57:04;;;;;;;1.65;0.20;;;18.90;99.90;;;;;;5073648;22;20056;-71
2022/09/20 13:59:41;;;;;;;4.05;0.50;;;19.00;99.90;;;;;;5068803;28;20142;-71